Time,TemperatureF,DewpointF,PressureIn,WindDirection,WindDirectionDegrees,WindSpeedMPH,WindSpeedGustMPH,Humidity,HourlyPrecipIn,Conditions,Clouds,dailyrainin,SoftwareType,DateUTC
2013-01-15 00:03:00,26.6,0.7,30.47,West,269,0.0,3.0,32,0.00,,---,0.00,VWS V14.01,2013-01-15 08:03:00,
2013-01-15 00:08:00,26.3,1.1,30.47,West,269,0.0,3.0,33,0.00,,---,0.00,VWS V14.01,2013-01-15 08:08:00,
2013-01-15 00:13:00,25.9,1.4,30.48,West,269,0.0,3.0,34,0.00,,---,0.00,VWS V14.01,2013-01-15 08:13:00,
2013-01-15 00:18:00,25.8,1.3,30.47,West,269,0.0,3.0,34,0.00,,---,0.00,VWS V14.01,2013-01-15 08:18:00,
2013-01-15 00:24:00,25.3,1.5,30.47,ENE,57,0.0,3.0,35,0.00,,---,0.00,VWS V14.01,2013-01-15 08:24:00,
2013-01-15 00:29:00,25.1,1.3,30.47,NE,56,0.0,3.0,35,0.00,,---,0.00,VWS V14.01,2013-01-15 08:29:00,
2013-01-15 00:34:00,25.6,1.8,30.48,WSW,240,0.0,3.0,35,0.00,,---,0.00,VWS V14.01,2013-01-15 08:34:00,
2013-01-15 00:39:00,25.6,2.4,30.47,WSW,240,0.0,3.0,36,0.00,,---,0.00,VWS V14.01,2013-01-15 08:39:00,
2013-01-15 00:44:00,25.4,2.2,30.48,SW,219,0.0,3.0,36,0.00,,---,0.00,VWS V14.01,2013-01-15 08:44:00,
2013-01-15 00:49:00,26.1,0.9,30.48,SW,231,0.0,3.0,33,0.00,,---,0.00,VWS V14.01,2013-01-15 08:49:00,
2013-01-15 00:54:00,26.5,1.3,30.48,SW,233,0.0,3.0,33,0.00,,---,0.00,VWS V14.01,2013-01-15 08:54:00,
2013-01-15 00:59:00,27.1,0.4,30.49,West,260,0.0,3.0,30,0.00,,---,0.00,VWS V14.01,2013-01-15 08:59:00,
2013-01-15 01:04:00,28.0,0.6,30.49,West,260,0.0,0.0,30,0.00,,---,0.00,VWS V14.01,2013-01-15 09:04:00,
2013-01-15 01:09:00,28.0,0.6,30.49,WSW,238,0.0,0.0,30,0.00,,---,0.00,VWS V14.01,2013-01-15 09:09:00,
2013-01-15 01:14:00,27.7,1.0,30.49,West,269,0.0,0.0,31,0.00,,---,0.00,VWS V14.01,2013-01-15 09:14:00,
2013-01-15 01:19:00,27.6,0.9,30.49,SW,228,0.0,0.0,31,0.00,,---,0.00,VWS V14.01,2013-01-15 09:19:00,
2013-01-15 01:24:00,27.5,0.8,30.49,SW,233,0.0,0.0,31,0.00,,---,0.00,VWS V14.01,2013-01-15 09:24:00,
2013-01-15 01:29:00,27.9,0.5,30.49,West,278,0.0,0.0,30,0.00,,---,0.00,VWS V14.01,2013-01-15 09:29:00,
2013-01-15 01:34:00,27.1,1.8,30.50,NNE,23,0.0,0.0,33,0.00,,---,0.00,VWS V14.01,2013-01-15 09:34:00,
2013-01-15 01:39:00,27.1,1.2,30.50,West,271,0.0,0.0,32,0.00,,---,0.00,VWS V14.01,2013-01-15 09:39:00,
2013-01-15 01:44:00,27.7,1.0,30.50,West,277,0.0,0.0,31,0.00,,---,0.00,VWS V14.01,2013-01-15 09:44:00,
2013-01-15 01:49:00,27.9,0.5,30.50,WSW,250,0.0,0.0,30,0.00,,---,0.00,VWS V14.01,2013-01-15 09:49:00,
2013-01-15 01:54:00,28.1,0.7,30.50,West,259,0.0,0.0,30,0.00,,---,0.00,VWS V14.01,2013-01-15 09:54:00,
2013-01-15 01:59:00,28.0,0.6,30.50,WSW,242,0.0,0.0,30,0.00,,---,0.00,VWS V14.01,2013-01-15 09:59:00,
2013-01-15 02:04:00,27.7,1.0,30.50,WSW,253,0.0,0.0,31,0.00,,---,0.00,VWS V14.01,2013-01-15 10:04:00,
2013-01-15 02:09:00,27.7,1.7,30.51,West,274,0.0,0.0,32,0.00,,---,0.00,VWS V14.01,2013-01-15 10:09:00,
2013-01-15 02:14:00,27.6,0.9,30.50,West,260,0.0,0.0,31,0.00,,---,0.00,VWS V14.01,2013-01-15 10:14:00,
2013-01-15 02:19:00,27.8,1.1,30.50,WSW,238,0.0,0.0,31,0.00,,---,0.00,VWS V14.01,2013-01-15 10:19:00,
2013-01-15 02:24:00,27.9,0.5,30.50,WSW,248,0.0,0.0,30,0.00,,---,0.00,VWS V14.01,2013-01-15 10:24:00,
2013-01-15 02:29:00,28.0,1.3,30.51,WSW,244,0.0,0.0,31,0.00,,---,0.00,VWS V14.01,2013-01-15 10:29:00,
2013-01-15 02:34:00,28.0,0.6,30.51,WSW,241,0.0,0.0,30,0.00,,---,0.00,VWS V14.01,2013-01-15 10:34:00,
2013-01-15 02:39:00,28.3,0.9,30.51,WSW,246,0.0,0.0,30,0.00,,---,0.00,VWS V14.01,2013-01-15 10:39:00,
2013-01-15 02:44:00,28.3,0.9,30.51,WSW,237,0.0,0.0,30,0.00,,---,0.00,VWS V14.01,2013-01-15 10:44:00,
2013-01-15 02:49:00,28.0,0.6,30.51,SSW,201,0.0,0.0,30,0.00,,---,0.00,VWS V14.01,2013-01-15 10:49:00,
2013-01-15 02:54:00,27.3,1.4,30.51,ESE,120,0.0,0.0,32,0.00,,---,0.00,VWS V14.01,2013-01-15 10:54:00,
2013-01-15 02:59:00,27.0,1.1,30.51,ESE,120,0.0,0.0,32,0.00,,---,0.00,VWS V14.01,2013-01-15 10:59:00,
2013-01-15 03:04:00,27.2,0.6,30.51,SE,134,0.0,0.0,31,0.00,,---,0.00,VWS V14.01,2013-01-15 11:04:00,
2013-01-15 03:09:00,27.1,1.2,30.51,SE,134,0.0,0.0,32,0.00,,---,0.00,VWS V14.01,2013-01-15 11:09:00,
2013-01-15 03:14:00,26.9,1.0,30.51,SE,146,0.0,0.0,32,0.00,,---,0.00,VWS V14.01,2013-01-15 11:14:00,
2013-01-15 03:19:00,26.6,1.4,30.51,SE,146,0.0,0.0,33,0.00,,---,0.00,VWS V14.01,2013-01-15 11:19:00,
2013-01-15 03:24:00,26.5,0.6,30.51,South,172,0.0,0.0,32,0.00,,---,0.00,VWS V14.01,2013-01-15 11:24:00,
2013-01-15 03:29:00,26.3,1.1,30.51,South,188,0.0,0.0,33,0.00,,---,0.00,VWS V14.01,2013-01-15 11:29:00,
2013-01-15 03:35:00,26.2,2.3,30.51,SE,128,0.0,0.0,35,0.00,,---,0.00,VWS V14.01,2013-01-15 11:35:00,
2013-01-15 03:40:00,26.4,1.2,30.51,SSE,158,0.0,0.0,33,0.00,,---,0.00,VWS V14.01,2013-01-15 11:40:00,
2013-01-15 03:45:00,26.3,2.4,30.51,SSW,195,0.0,0.0,35,0.00,,---,0.00,VWS V14.01,2013-01-15 11:45:00,
2013-01-15 03:50:00,25.8,2.5,30.51,SSW,195,0.0,0.0,36,0.00,,---,0.00,VWS V14.01,2013-01-15 11:50:00,
2013-01-15 03:55:00,25.4,2.8,30.50,SSW,207,0.0,0.0,37,0.00,,---,0.00,VWS V14.01,2013-01-15 11:55:00,
2013-01-15 04:00:00,26.0,2.1,30.50,SW,225,0.0,0.0,35,0.00,,---,0.00,VWS V14.01,2013-01-15 12:00:00,
2013-01-15 04:05:00,26.7,2.1,30.50,WSW,243,0.0,0.0,34,0.00,,---,0.00,VWS V14.01,2013-01-15 12:05:00,
2013-01-15 04:10:00,26.8,2.2,30.51,WSW,245,0.0,0.0,34,0.00,,---,0.00,VWS V14.01,2013-01-15 12:10:00,
2013-01-15 04:15:00,26.6,2.7,30.51,WSW,240,0.0,0.0,35,0.00,,---,0.00,VWS V14.01,2013-01-15 12:15:00,
2013-01-15 04:20:00,26.6,2.7,30.51,WSW,255,0.0,0.0,35,0.00,,---,0.00,VWS V14.01,2013-01-15 12:20:00,
2013-01-15 04:25:00,26.9,2.9,30.51,WSW,252,0.0,0.0,35,0.00,,---,0.00,VWS V14.01,2013-01-15 12:25:00,
2013-01-15 04:30:00,27.1,2.5,30.51,WSW,253,0.0,0.0,34,0.00,,---,0.00,VWS V14.01,2013-01-15 12:30:00,
2013-01-15 04:35:00,27.0,2.4,30.51,WSW,253,0.0,0.0,34,0.00,,---,0.00,VWS V14.01,2013-01-15 12:35:00,
2013-01-15 04:40:00,26.8,2.8,30.51,WSW,253,0.0,0.0,35,0.00,,---,0.00,VWS V14.01,2013-01-15 12:40:00,
2013-01-15 04:45:00,26.0,3.3,30.51,WSW,252,0.0,0.0,37,0.00,,---,0.00,VWS V14.01,2013-01-15 12:45:00,
2013-01-15 04:50:00,25.3,2.7,30.51,WSW,253,0.0,0.0,37,0.00,,---,0.00,VWS V14.01,2013-01-15 12:50:00,
2013-01-15 04:55:00,25.6,2.4,30.51,SW,228,0.0,0.0,36,0.00,,---,0.00,VWS V14.01,2013-01-15 12:55:00,
2013-01-15 05:00:00,26.5,1.9,30.51,WSW,248,0.0,0.0,34,0.00,,---,0.00,VWS V14.01,2013-01-15 13:00:00,
2013-01-15 05:05:00,26.8,2.2,30.51,WSW,248,0.0,0.0,34,0.00,,---,0.00,VWS V14.01,2013-01-15 13:05:00,
2013-01-15 05:10:00,26.9,2.9,30.51,SSW,211,0.0,0.0,35,0.00,,---,0.00,VWS V14.01,2013-01-15 13:10:00,
2013-01-15 05:15:00,25.6,3.5,30.51,South,176,0.0,0.0,38,0.00,,---,0.00,VWS V14.01,2013-01-15 13:15:00,
2013-01-15 05:20:00,24.9,4.0,30.52,SE,138,0.0,0.0,40,0.00,,---,0.00,VWS V14.01,2013-01-15 13:20:00,
2013-01-15 05:25:00,25.2,3.7,30.51,SSE,156,0.0,0.0,39,0.00,,---,0.00,VWS V14.01,2013-01-15 13:25:00,
2013-01-15 05:30:00,25.2,3.7,30.52,ESE,107,0.0,0.0,39,0.00,,---,0.00,VWS V14.01,2013-01-15 13:30:00,
2013-01-15 05:35:00,25.6,2.4,30.52,ESE,107,0.0,0.0,36,0.00,,---,0.00,VWS V14.01,2013-01-15 13:35:00,
2013-01-15 05:40:00,26.1,2.2,30.52,ESE,107,0.0,0.0,35,0.00,,---,0.00,VWS V14.01,2013-01-15 13:40:00,
2013-01-15 05:45:00,25.3,3.8,30.53,ESE,115,0.0,0.0,39,0.00,,---,0.00,VWS V14.01,2013-01-15 13:45:00,
2013-01-15 05:50:00,24.2,3.9,30.53,ESE,108,0.0,0.0,41,0.00,,---,0.00,VWS V14.01,2013-01-15 13:50:00,
2013-01-15 05:55:00,23.7,2.9,30.53,East,100,0.0,0.0,40,0.00,,---,0.00,VWS V14.01,2013-01-15 13:55:00,
2013-01-15 06:00:00,23.6,2.8,30.53,East,96,0.0,0.0,40,0.00,,---,0.00,VWS V14.01,2013-01-15 14:00:00,
2013-01-15 06:05:00,23.3,3.1,30.53,ESE,105,0.0,0.0,41,0.00,,---,0.00,VWS V14.01,2013-01-15 14:05:00,
2013-01-15 06:10:00,23.3,2.6,30.53,ESE,104,0.0,0.0,40,0.00,,---,0.00,VWS V14.01,2013-01-15 14:10:00,
2013-01-15 06:15:00,23.4,2.1,30.53,ESE,105,0.0,0.0,39,0.00,,---,0.00,VWS V14.01,2013-01-15 14:15:00,
2013-01-15 06:20:00,23.4,2.1,30.54,ESE,104,0.0,0.0,39,0.00,,---,0.00,VWS V14.01,2013-01-15 14:20:00,
2013-01-15 06:25:00,23.0,4.3,30.54,ESE,105,0.0,0.0,44,0.00,,---,0.00,VWS V14.01,2013-01-15 14:25:00,
2013-01-15 06:30:00,22.4,4.8,30.54,ESE,103,0.0,0.0,46,0.00,,---,0.00,VWS V14.01,2013-01-15 14:30:00,
2013-01-15 06:35:00,22.3,4.2,30.55,SW,224,0.0,0.0,45,0.00,,---,0.00,VWS V14.01,2013-01-15 14:35:00,
2013-01-15 06:40:00,22.3,5.1,30.55,SW,224,0.0,0.0,47,0.00,,---,0.00,VWS V14.01,2013-01-15 14:40:00,
2013-01-15 06:45:00,22.3,4.7,30.55,West,264,0.0,0.0,46,0.00,,---,0.00,VWS V14.01,2013-01-15 14:45:00,
2013-01-15 06:50:00,22.4,5.2,30.56,West,264,0.0,0.0,47,0.00,,---,0.00,VWS V14.01,2013-01-15 14:50:00,
2013-01-15 06:55:00,22.1,5.4,30.55,West,264,0.0,0.0,48,0.00,,---,0.00,VWS V14.01,2013-01-15 14:55:00,
2013-01-15 07:00:00,21.7,5.5,30.56,West,262,0.0,0.0,49,0.00,,---,0.00,VWS V14.01,2013-01-15 15:00:00,
2013-01-15 07:05:00,21.8,5.1,30.56,West,271,0.0,0.0,48,0.00,,---,0.00,VWS V14.01,2013-01-15 15:05:00,
2013-01-15 07:10:00,21.8,4.7,30.56,West,264,0.0,0.0,47,0.00,,---,0.00,VWS V14.01,2013-01-15 15:10:00,
2013-01-15 07:15:00,22.0,5.8,30.56,West,264,0.0,0.0,49,0.00,,---,0.00,VWS V14.01,2013-01-15 15:15:00,
2013-01-15 07:20:00,22.1,5.4,30.57,SSW,212,0.0,0.0,48,0.00,,---,0.00,VWS V14.01,2013-01-15 15:20:00,
2013-01-15 07:25:00,22.6,6.3,30.57,SW,229,0.0,0.0,49,0.00,,---,0.00,VWS V14.01,2013-01-15 15:25:00,
2013-01-15 07:30:00,22.9,7.1,30.57,SW,229,0.0,0.0,50,0.00,,---,0.00,VWS V14.01,2013-01-15 15:30:00,
2013-01-15 07:35:00,23.2,6.9,30.57,SW,229,0.0,0.0,49,0.00,,---,0.00,VWS V14.01,2013-01-15 15:35:00,
2013-01-15 07:40:00,23.5,7.2,30.57,SW,222,0.0,0.0,49,0.00,,---,0.00,VWS V14.01,2013-01-15 15:40:00,
2013-01-15 07:45:00,23.7,7.3,30.58,SW,224,0.0,0.0,49,0.00,,---,0.00,VWS V14.01,2013-01-15 15:45:00,
2013-01-15 07:50:00,24.0,7.6,30.58,SW,227,0.0,0.0,49,0.00,,---,0.00,VWS V14.01,2013-01-15 15:50:00,
2013-01-15 07:55:00,25.1,9.1,30.58,SSW,201,0.0,0.0,50,0.00,,---,0.00,VWS V14.01,2013-01-15 15:55:00,
2013-01-15 08:01:00,25.9,8.5,30.58,SSW,203,0.0,0.0,47,0.00,,---,0.00,VWS V14.01,2013-01-15 16:01:00,
2013-01-15 08:06:00,26.6,8.6,30.58,SSW,202,0.0,0.0,46,0.00,,---,0.00,VWS V14.01,2013-01-15 16:06:00,
2013-01-15 08:11:00,27.9,8.3,30.59,SSW,203,0.0,0.0,43,0.00,,---,0.00,VWS V14.01,2013-01-15 16:11:00,
2013-01-15 08:16:00,28.1,8.0,30.59,WSW,243,0.0,0.0,42,0.00,,---,0.00,VWS V14.01,2013-01-15 16:16:00,
2013-01-15 08:21:00,28.1,7.4,30.60,NW,311,0.0,0.0,41,0.00,,---,0.00,VWS V14.01,2013-01-15 16:21:00,
2013-01-15 08:26:00,28.1,6.3,30.60,NNW,340,0.0,0.0,39,0.00,,---,0.00,VWS V14.01,2013-01-15 16:26:00,
2013-01-15 08:31:00,28.0,6.3,30.60,WNW,288,0.0,0.0,39,0.00,,---,0.00,VWS V14.01,2013-01-15 16:31:00,
2013-01-15 08:36:00,27.7,5.4,30.60,NW,316,0.0,0.0,38,0.00,,---,0.00,VWS V14.01,2013-01-15 16:36:00,
2013-01-15 08:41:00,27.6,5.3,30.60,NW,311,0.0,0.0,38,0.00,,---,0.00,VWS V14.01,2013-01-15 16:41:00,
2013-01-15 08:46:00,27.7,5.4,30.60,WNW,297,0.0,2.0,38,0.00,,---,0.00,VWS V14.01,2013-01-15 16:46:00,
2013-01-15 08:51:00,27.9,5.0,30.60,NW,314,0.0,2.0,37,0.00,,---,0.00,VWS V14.01,2013-01-15 16:51:00,
2013-01-15 08:56:00,28.3,5.4,30.60,WNW,288,0.0,2.0,37,0.00,,---,0.00,VWS V14.01,2013-01-15 16:56:00,
2013-01-15 09:01:00,28.9,4.7,30.61,North,11,0.0,0.0,35,0.00,,---,0.00,VWS V14.01,2013-01-15 17:01:00,
2013-01-15 09:06:00,29.3,3.8,30.61,North,355,0.0,0.0,33,0.00,,---,0.00,VWS V14.01,2013-01-15 17:06:00,
2013-01-15 09:11:00,29.9,2.2,30.61,NNW,342,0.0,0.0,30,0.00,,---,0.00,VWS V14.01,2013-01-15 17:11:00,
2013-01-15 09:16:00,30.6,1.4,30.61,NE,45,0.0,0.0,28,0.00,,---,0.00,VWS V14.01,2013-01-15 17:16:00,
2013-01-15 09:21:00,31.3,1.2,30.61,NE,36,0.0,0.0,27,0.00,,---,0.00,VWS V14.01,2013-01-15 17:21:00,
2013-01-15 09:26:00,31.9,1.7,30.62,NNE,27,0.0,3.0,27,0.00,,---,0.00,VWS V14.01,2013-01-15 17:26:00,
2013-01-15 09:31:00,32.0,1.0,30.62,NNE,27,0.0,4.0,26,0.00,,---,0.00,VWS V14.01,2013-01-15 17:31:00,
2013-01-15 09:36:00,32.6,1.5,30.61,NNW,348,2.0,4.0,26,0.00,,---,0.00,VWS V14.01,2013-01-15 17:36:00,
2013-01-15 09:41:00,32.8,0.9,30.61,ENE,73,0.0,4.0,25,0.00,,---,0.00,VWS V14.01,2013-01-15 17:41:00,
2013-01-15 09:46:00,32.9,0.9,30.61,ENE,58,4.0,5.0,25,0.00,,---,0.00,VWS V14.01,2013-01-15 17:46:00,
2013-01-15 09:51:00,32.8,0.9,30.61,NE,47,2.0,5.0,25,0.00,,---,0.00,VWS V14.01,2013-01-15 17:51:00,
2013-01-15 09:56:00,32.8,0.9,30.61,North,11,4.0,6.0,25,0.00,,---,0.00,VWS V14.01,2013-01-15 17:56:00,
2013-01-15 10:01:00,33.2,1.2,30.61,NNW,346,0.0,2.0,25,0.00,,---,0.00,VWS V14.01,2013-01-15 18:01:00,
2013-01-15 10:06:00,33.3,1.3,30.60,North,8,0.0,4.0,25,0.00,,---,0.00,VWS V14.01,2013-01-15 18:06:00,
2013-01-15 10:11:00,33.6,1.5,30.60,NW,314,0.0,4.0,25,0.00,,---,0.00,VWS V14.01,2013-01-15 18:11:00,
2013-01-15 10:16:00,34.3,1.3,30.59,NW,308,3.0,5.0,24,0.00,,---,0.00,VWS V14.01,2013-01-15 18:16:00,
2013-01-15 10:21:00,34.1,1.1,30.59,NNW,342,0.0,5.0,24,0.00,,---,0.00,VWS V14.01,2013-01-15 18:21:00,
2013-01-15 10:26:00,34.3,1.3,30.59,NNE,15,0.0,5.0,24,0.00,,---,0.00,VWS V14.01,2013-01-15 18:26:00,
2013-01-15 10:31:00,34.5,1.4,30.58,WNW,290,0.0,5.0,24,0.00,,---,0.00,VWS V14.01,2013-01-15 18:31:00,
2013-01-15 10:36:00,34.8,1.7,30.57,WNW,297,3.0,5.0,24,0.00,,---,0.00,VWS V14.01,2013-01-15 18:36:00,
2013-01-15 10:41:00,35.3,2.1,30.57,WNW,298,4.0,5.0,24,0.00,,---,0.00,VWS V14.01,2013-01-15 18:41:00,
2013-01-15 10:46:00,35.5,2.3,30.57,WNW,297,1.0,6.0,24,0.00,,---,0.00,VWS V14.01,2013-01-15 18:46:00,
2013-01-15 10:51:00,35.8,2.5,30.57,WNW,300,2.0,6.0,24,0.00,,---,0.00,VWS V14.01,2013-01-15 18:51:00,
2013-01-15 10:56:00,35.8,1.6,30.57,WNW,285,2.0,7.0,23,0.00,,---,0.00,VWS V14.01,2013-01-15 18:56:00,
2013-01-15 11:01:00,36.6,2.3,30.56,WNW,303,6.0,7.0,23,0.00,,---,0.00,VWS V14.01,2013-01-15 19:01:00,
2013-01-15 11:06:00,37.3,2.9,30.55,WNW,286,2.0,7.0,23,0.00,,---,0.00,VWS V14.01,2013-01-15 19:06:00,
2013-01-15 11:11:00,37.7,3.2,30.55,WNW,294,3.0,8.0,23,0.00,,---,0.00,VWS V14.01,2013-01-15 19:11:00,
2013-01-15 11:16:00,38.2,3.7,30.55,West,260,3.0,8.0,23,0.00,,---,0.00,VWS V14.01,2013-01-15 19:16:00,
2013-01-15 11:21:00,38.6,4.0,30.55,WNW,296,4.0,8.0,23,0.00,,---,0.00,VWS V14.01,2013-01-15 19:21:00,
2013-01-15 11:26:00,39.0,4.4,30.54,WNW,293,2.0,8.0,23,0.00,,---,0.00,VWS V14.01,2013-01-15 19:26:00,
2013-01-15 11:31:00,39.8,5.0,30.53,North,353,4.0,9.0,23,0.00,,---,0.00,VWS V14.01,2013-01-15 19:31:00,
2013-01-15 11:36:00,39.7,4.9,30.53,NNE,20,2.0,9.0,23,0.00,,---,0.00,VWS V14.01,2013-01-15 19:36:00,
2013-01-15 11:41:00,39.8,5.0,30.53,WNW,293,1.0,9.0,23,0.00,,---,0.00,VWS V14.01,2013-01-15 19:41:00,
2013-01-15 11:46:00,39.9,5.1,30.53,NNW,347,2.0,9.0,23,0.00,,---,0.00,VWS V14.01,2013-01-15 19:46:00,
2013-01-15 11:51:00,40.1,5.3,30.52,NNW,342,5.0,9.0,23,0.00,,---,0.00,VWS V14.01,2013-01-15 19:51:00,
2013-01-15 11:56:00,40.4,5.5,30.51,NW,305,2.0,9.0,23,0.00,,---,0.00,VWS V14.01,2013-01-15 19:56:00,
2013-01-15 12:01:00,40.9,6.0,30.51,North,6,4.0,6.0,23,0.00,,---,0.00,VWS V14.01,2013-01-15 20:01:00,
2013-01-15 12:06:00,41.1,6.1,30.50,NE,38,4.0,6.0,23,0.00,,---,0.00,VWS V14.01,2013-01-15 20:06:00,
2013-01-15 12:11:00,41.5,6.5,30.50,NNE,27,5.0,9.0,23,0.00,,---,0.00,VWS V14.01,2013-01-15 20:11:00,
2013-01-15 12:16:00,41.7,6.7,30.50,NE,50,7.0,10.0,23,0.00,,---,0.00,VWS V14.01,2013-01-15 20:16:00,
2013-01-15 12:21:00,42.4,8.2,30.50,NNE,25,6.0,10.0,24,0.00,,---,0.00,VWS V14.01,2013-01-15 20:21:00,
2013-01-15 12:26:00,43.0,7.8,30.50,North,8,7.0,11.0,23,0.00,,---,0.00,VWS V14.01,2013-01-15 20:26:00,
2013-01-15 12:31:00,43.2,7.9,30.50,NNE,33,12.0,13.0,23,0.00,,---,0.00,VWS V14.01,2013-01-15 20:31:00,
2013-01-15 12:36:00,43.4,8.1,30.50,NNE,33,5.0,16.0,23,0.00,,---,0.00,VWS V14.01,2013-01-15 20:36:00,
2013-01-15 12:41:00,44.1,8.7,30.49,North,353,8.0,16.0,23,0.00,,---,0.00,VWS V14.01,2013-01-15 20:41:00,
2013-01-15 12:46:00,44.9,9.4,30.48,North,349,12.0,16.0,23,0.00,,---,0.00,VWS V14.01,2013-01-15 20:46:00,
2013-01-15 12:51:00,44.9,9.4,30.48,NE,36,10.0,18.0,23,0.00,,---,0.00,VWS V14.01,2013-01-15 20:51:00,
2013-01-15 12:56:00,45.5,9.9,30.48,North,6,11.0,18.0,23,0.00,,---,0.00,VWS V14.01,2013-01-15 20:56:00,
2013-01-15 13:01:00,45.9,10.2,30.48,North,8,7.0,13.0,23,0.00,,---,0.00,VWS V14.01,2013-01-15 21:01:00,
2013-01-15 13:06:00,46.0,10.3,30.48,NNW,348,11.0,18.0,23,0.00,,---,0.00,VWS V14.01,2013-01-15 21:06:00,
2013-01-15 13:12:00,46.4,10.6,30.48,North,350,10.0,18.0,23,0.00,,---,0.00,VWS V14.01,2013-01-15 21:12:00,
2013-01-15 13:17:00,46.5,10.7,30.48,NE,54,12.0,19.0,23,0.00,,---,0.00,VWS V14.01,2013-01-15 21:17:00,
2013-01-15 13:22:00,46.9,11.1,30.47,NNE,20,11.0,19.0,23,0.00,,---,0.00,VWS V14.01,2013-01-15 21:22:00,
2013-01-15 13:27:00,46.7,10.9,30.48,NE,44,14.0,19.0,23,0.00,,---,0.00,VWS V14.01,2013-01-15 21:27:00,
2013-01-15 13:32:00,46.8,11.0,30.47,North,1,11.0,19.0,23,0.00,,---,0.00,VWS V14.01,2013-01-15 21:32:00,
2013-01-15 13:37:00,47.1,11.2,30.48,NNE,26,7.0,19.0,23,0.00,,---,0.00,VWS V14.01,2013-01-15 21:37:00,
2013-01-15 13:42:00,47.3,11.4,30.48,NNE,23,14.0,19.0,23,0.00,,---,0.00,VWS V14.01,2013-01-15 21:42:00,
2013-01-15 13:47:00,47.3,11.4,30.47,NE,46,17.0,19.0,23,0.00,,---,0.00,VWS V14.01,2013-01-15 21:47:00,
2013-01-15 13:52:00,47.1,12.2,30.47,NE,39,13.0,19.0,24,0.00,,---,0.00,VWS V14.01,2013-01-15 21:52:00,
2013-01-15 13:57:00,47.1,12.2,30.48,NNE,28,9.0,20.0,24,0.00,,---,0.00,VWS V14.01,2013-01-15 21:57:00,
2013-01-15 14:02:00,47.6,11.6,30.48,NE,42,10.0,13.0,23,0.00,,---,0.00,VWS V14.01,2013-01-15 22:02:00,
2013-01-15 14:07:00,47.4,11.5,30.48,NE,56,12.0,17.0,23,0.00,,---,0.00,VWS V14.01,2013-01-15 22:07:00,
2013-01-15 14:12:00,47.4,11.5,30.48,NE,56,10.0,18.0,23,0.00,,---,0.00,VWS V14.01,2013-01-15 22:12:00,
2013-01-15 14:17:00,47.6,11.6,30.47,NE,35,7.0,18.0,23,0.00,,---,0.00,VWS V14.01,2013-01-15 22:17:00,
2013-01-15 14:22:00,47.6,11.6,30.48,NNE,30,8.0,18.0,23,0.00,,---,0.00,VWS V14.01,2013-01-15 22:22:00,
2013-01-15 14:27:00,47.2,11.3,30.48,NE,41,6.0,18.0,23,0.00,,---,0.00,VWS V14.01,2013-01-15 22:27:00,
2013-01-15 14:32:00,47.2,11.3,30.48,NE,47,16.0,18.0,23,0.00,,---,0.00,VWS V14.01,2013-01-15 22:32:00,
2013-01-15 14:37:00,47.3,11.4,30.48,NE,40,13.0,18.0,23,0.00,,---,0.00,VWS V14.01,2013-01-15 22:37:00,
2013-01-15 14:42:00,47.1,11.2,30.48,NNE,33,11.0,18.0,23,0.00,,---,0.00,VWS V14.01,2013-01-15 22:42:00,
2013-01-15 14:47:00,47.5,11.6,30.48,NE,37,14.0,18.0,23,0.00,,---,0.00,VWS V14.01,2013-01-15 22:47:00,
2013-01-15 14:52:00,47.2,10.3,30.48,NNE,31,11.0,18.0,22,0.00,,---,0.00,VWS V14.01,2013-01-15 22:52:00,
2013-01-15 14:57:00,47.1,11.2,30.48,NE,51,13.0,18.0,23,0.00,,---,0.00,VWS V14.01,2013-01-15 22:57:00,
2013-01-15 15:02:00,47.4,11.5,30.48,NE,46,12.0,14.0,23,0.00,,---,0.00,VWS V14.01,2013-01-15 23:02:00,
2013-01-15 15:07:00,47.6,11.6,30.48,NNW,348,9.0,14.0,23,0.00,,---,0.00,VWS V14.01,2013-01-15 23:07:00,
2013-01-15 15:12:00,47.7,11.7,30.47,NE,35,8.0,15.0,23,0.00,,---,0.00,VWS V14.01,2013-01-15 23:12:00,
2013-01-15 15:17:00,48.4,13.3,30.47,North,11,7.0,15.0,24,0.00,,---,0.00,VWS V14.01,2013-01-15 23:17:00,
2013-01-15 15:22:00,48.4,13.3,30.47,NNE,26,14.0,15.0,24,0.00,,---,0.00,VWS V14.01,2013-01-15 23:22:00,
2013-01-15 15:27:00,48.1,14.0,30.47,NNE,22,13.0,17.0,25,0.00,,---,0.00,VWS V14.01,2013-01-15 23:27:00,
2013-01-15 15:32:00,47.8,13.7,30.47,NE,47,15.0,18.0,25,0.00,,---,0.00,VWS V14.01,2013-01-15 23:32:00,
2013-01-15 15:37:00,47.6,13.5,30.47,NE,43,8.0,18.0,25,0.00,,---,0.00,VWS V14.01,2013-01-15 23:37:00,
2013-01-15 15:42:00,47.2,13.2,30.47,NE,44,10.0,18.0,25,0.00,,---,0.00,VWS V14.01,2013-01-15 23:42:00,
2013-01-15 15:47:00,46.9,12.9,30.47,NNE,31,5.0,18.0,25,0.00,,---,0.00,VWS V14.01,2013-01-15 23:47:00,
2013-01-15 15:52:00,46.9,12.9,30.47,NE,40,10.0,18.0,25,0.00,,---,0.00,VWS V14.01,2013-01-15 23:52:00,
2013-01-15 15:57:00,46.9,12.9,30.47,NNE,28,11.0,18.0,25,0.00,,---,0.00,VWS V14.01,2013-01-15 23:57:00,
2013-01-15 16:02:00,47.0,13.0,30.47,NNE,25,11.0,13.0,25,0.00,,---,0.00,VWS V14.01,2013-01-16 00:02:00,
2013-01-15 16:07:00,47.1,12.2,30.47,North,3,7.0,13.0,24,0.00,,---,0.00,VWS V14.01,2013-01-16 00:07:00,
2013-01-15 16:12:00,47.0,12.1,30.47,NNE,26,12.0,14.0,24,0.00,,---,0.00,VWS V14.01,2013-01-16 00:12:00,
2013-01-15 16:17:00,46.9,12.0,30.47,NE,44,11.0,14.0,24,0.00,,---,0.00,VWS V14.01,2013-01-16 00:17:00,
2013-01-15 16:22:00,46.6,11.8,30.47,NNW,347,8.0,15.0,24,0.00,,---,0.00,VWS V14.01,2013-01-16 00:22:00,
2013-01-15 16:27:00,46.5,11.7,30.47,NNE,12,6.0,15.0,24,0.00,,---,0.00,VWS V14.01,2013-01-16 00:27:00,
2013-01-15 16:32:00,46.5,11.7,30.47,NNE,18,5.0,15.0,24,0.00,,---,0.00,VWS V14.01,2013-01-16 00:32:00,
2013-01-15 16:37:00,46.4,12.5,30.47,NNE,15,8.0,15.0,25,0.00,,---,0.00,VWS V14.01,2013-01-16 00:37:00,
2013-01-15 16:42:00,46.2,12.3,30.47,NNE,28,10.0,15.0,25,0.00,,---,0.00,VWS V14.01,2013-01-16 00:42:00,
2013-01-15 16:47:00,45.9,12.1,30.47,NNE,28,4.0,15.0,25,0.00,,---,0.00,VWS V14.01,2013-01-16 00:47:00,
2013-01-15 16:52:00,45.7,11.9,30.47,NE,37,6.0,15.0,25,0.00,,---,0.00,VWS V14.01,2013-01-16 00:52:00,
2013-01-15 16:57:00,45.3,11.6,30.47,NNE,26,6.0,15.0,25,0.00,,---,0.00,VWS V14.01,2013-01-16 00:57:00,
2013-01-15 17:02:00,45.1,11.4,30.48,NE,40,4.0,8.0,25,0.00,,---,0.00,VWS V14.01,2013-01-16 01:02:00,
2013-01-15 17:07:00,44.8,12.0,30.48,NNE,22,4.0,8.0,26,0.00,,---,0.00,VWS V14.01,2013-01-16 01:07:00,
2013-01-15 17:12:00,44.6,11.9,30.48,NNE,17,3.0,8.0,26,0.00,,---,0.00,VWS V14.01,2013-01-16 01:12:00,
2013-01-15 17:17:00,44.4,11.7,30.48,NNE,12,3.0,8.0,26,0.00,,---,0.00,VWS V14.01,2013-01-16 01:17:00,
2013-01-15 17:22:00,44.2,11.5,30.48,North,352,1.0,8.0,26,0.00,,---,0.00,VWS V14.01,2013-01-16 01:22:00,
2013-01-15 17:27:00,43.9,11.2,30.48,North,349,2.0,8.0,26,0.00,,---,0.00,VWS V14.01,2013-01-16 01:27:00,
2013-01-15 17:32:00,43.6,11.8,30.48,NE,35,0.0,8.0,27,0.00,,---,0.00,VWS V14.01,2013-01-16 01:32:00,
2013-01-15 17:37:00,43.3,11.6,30.48,NE,42,0.0,8.0,27,0.00,,---,0.00,VWS V14.01,2013-01-16 01:37:00,
2013-01-15 17:42:00,43.1,11.4,30.48,NW,319,0.0,8.0,27,0.00,,---,0.00,VWS V14.01,2013-01-16 01:42:00,
2013-01-15 17:47:00,42.7,11.9,30.48,NW,325,0.0,8.0,28,0.00,,---,0.00,VWS V14.01,2013-01-16 01:47:00,
2013-01-15 17:52:00,42.4,11.6,30.48,West,280,0.0,8.0,28,0.00,,---,0.00,VWS V14.01,2013-01-16 01:52:00,
2013-01-15 17:58:00,42.1,11.4,30.48,WSW,256,0.0,8.0,28,0.00,,---,0.00,VWS V14.01,2013-01-16 01:58:00,
2013-01-15 18:03:00,41.7,11.8,30.48,West,276,0.0,0.0,29,0.00,,---,0.00,VWS V14.01,2013-01-16 02:03:00,
2013-01-15 18:08:00,41.6,11.7,30.49,WNW,293,0.0,0.0,29,0.00,,---,0.00,VWS V14.01,2013-01-16 02:08:00,
2013-01-15 18:13:00,41.5,11.6,30.49,NW,304,0.0,0.0,29,0.00,,---,0.00,VWS V14.01,2013-01-16 02:13:00,
2013-01-15 18:18:00,41.2,11.4,30.49,NW,304,0.0,0.0,29,0.00,,---,0.00,VWS V14.01,2013-01-16 02:18:00,
2013-01-15 18:23:00,41.0,11.2,30.49,NW,311,0.0,0.0,29,0.00,,---,0.00,VWS V14.01,2013-01-16 02:23:00,
2013-01-15 18:28:00,40.8,10.2,30.49,NW,305,0.0,0.0,28,0.00,,---,0.00,VWS V14.01,2013-01-16 02:28:00,
2013-01-15 18:33:00,40.7,10.1,30.49,WNW,285,0.0,0.0,28,0.00,,---,0.00,VWS V14.01,2013-01-16 02:33:00,
2013-01-15 18:38:00,40.6,10.1,30.49,WNW,286,0.0,0.0,28,0.00,,---,0.00,VWS V14.01,2013-01-16 02:38:00,
2013-01-15 18:43:00,40.6,10.9,30.49,West,270,0.0,0.0,29,0.00,,---,0.00,VWS V14.01,2013-01-16 02:43:00,
2013-01-15 18:48:00,40.6,10.9,30.49,WSW,257,0.0,0.0,29,0.00,,---,0.00,VWS V14.01,2013-01-16 02:48:00,
2013-01-15 18:53:00,40.2,11.3,30.49,WSW,249,0.0,0.0,30,0.00,,---,0.00,VWS V14.01,2013-01-16 02:53:00,
2013-01-15 18:58:00,39.8,11.6,30.49,SSW,195,0.0,0.0,31,0.00,,---,0.00,VWS V14.01,2013-01-16 02:58:00,
2013-01-15 19:03:00,39.3,11.9,30.49,SW,223,2.0,2.0,32,0.00,,---,0.00,VWS V14.01,2013-01-16 03:03:00,
2013-01-15 19:08:00,38.9,11.6,30.50,SSW,209,0.0,2.0,32,0.00,,---,0.00,VWS V14.01,2013-01-16 03:08:00,
2013-01-15 19:13:00,38.7,11.4,30.50,SW,218,0.0,2.0,32,0.00,,---,0.00,VWS V14.01,2013-01-16 03:13:00,
2013-01-15 19:18:00,38.7,11.4,30.50,SW,225,0.0,2.0,32,0.00,,---,0.00,VWS V14.01,2013-01-16 03:18:00,
2013-01-15 19:23:00,38.7,12.1,30.50,WSW,240,0.0,2.0,33,0.00,,---,0.00,VWS V14.01,2013-01-16 03:23:00,
2013-01-15 19:28:00,38.5,11.2,30.50,WSW,243,0.0,2.0,32,0.00,,---,0.00,VWS V14.01,2013-01-16 03:28:00,
2013-01-15 19:33:00,39.0,11.7,30.50,WNW,284,0.0,2.0,32,0.00,,---,0.00,VWS V14.01,2013-01-16 03:33:00,
2013-01-15 19:38:00,38.7,11.4,30.51,West,262,0.0,2.0,32,0.00,,---,0.00,VWS V14.01,2013-01-16 03:38:00,
2013-01-15 19:43:00,38.8,11.5,30.51,West,270,0.0,2.0,32,0.00,,---,0.00,VWS V14.01,2013-01-16 03:43:00,
2013-01-15 19:48:00,38.6,12.0,30.51,WSW,250,0.0,2.0,33,0.00,,---,0.00,VWS V14.01,2013-01-16 03:48:00,
2013-01-15 19:53:00,38.1,11.6,30.51,SSW,210,0.0,2.0,33,0.00,,---,0.00,VWS V14.01,2013-01-16 03:53:00,
2013-01-15 19:58:00,37.9,12.1,30.51,SSW,209,0.0,2.0,34,0.00,,---,0.00,VWS V14.01,2013-01-16 03:58:00,
2013-01-15 20:03:00,37.9,11.4,30.50,WSW,253,0.0,0.0,33,0.00,,---,0.00,VWS V14.01,2013-01-16 04:03:00,
2013-01-15 20:08:00,38.1,10.9,30.50,WSW,253,0.0,0.0,32,0.00,,---,0.00,VWS V14.01,2013-01-16 04:08:00,
2013-01-15 20:13:00,38.0,11.5,30.51,WSW,253,0.0,0.0,33,0.00,,---,0.00,VWS V14.01,2013-01-16 04:13:00,
2013-01-15 20:18:00,37.7,10.5,30.51,WSW,250,0.0,0.0,32,0.00,,---,0.00,VWS V14.01,2013-01-16 04:18:00,
2013-01-15 20:23:00,37.4,10.2,30.51,WSW,250,0.0,0.0,32,0.00,,---,0.00,VWS V14.01,2013-01-16 04:23:00,
2013-01-15 20:28:00,37.1,10.0,30.51,WSW,250,0.0,0.0,32,0.00,,---,0.00,VWS V14.01,2013-01-16 04:28:00,
2013-01-15 20:33:00,37.3,10.2,30.51,WSW,250,0.0,0.0,32,0.00,,---,0.00,VWS V14.01,2013-01-16 04:33:00,
2013-01-15 20:38:00,37.5,10.3,30.51,WSW,250,0.0,0.0,32,0.00,,---,0.00,VWS V14.01,2013-01-16 04:38:00,
2013-01-15 20:43:00,37.4,10.2,30.51,WSW,250,0.0,0.0,32,0.00,,---,0.00,VWS V14.01,2013-01-16 04:43:00,
2013-01-15 20:48:00,36.5,11.5,30.51,ESE,116,0.0,0.0,35,0.00,,---,0.00,VWS V14.01,2013-01-16 04:48:00,
2013-01-15 20:53:00,36.1,11.7,30.51,ESE,115,0.0,0.0,36,0.00,,---,0.00,VWS V14.01,2013-01-16 04:53:00,
2013-01-15 20:58:00,36.0,11.0,30.51,ESE,115,0.0,0.0,35,0.00,,---,0.00,VWS V14.01,2013-01-16 04:58:00,
2013-01-15 21:00:00,35.9,10.9,30.51,ESE,115,0.0,0.0,35,0.00,,---,0.00,VWS V14.01,2013-01-16 05:00:00,
2013-01-15 21:04:00,35.4,11.7,30.51,SSW,198,0.0,0.0,37,0.00,,---,0.00,VWS V14.01,2013-01-16 05:04:00,
2013-01-15 21:05:00,35.2,11.6,30.51,SSW,198,0.0,0.0,37,0.00,,---,0.00,VWS V14.01,2013-01-16 05:05:00,
2013-01-15 21:09:00,35.1,11.5,30.51,SSW,205,0.0,0.0,37,0.00,,---,0.00,VWS V14.01,2013-01-16 05:09:00,
2013-01-15 21:14:00,35.1,10.9,30.51,SSW,211,0.0,0.0,36,0.00,,---,0.00,VWS V14.01,2013-01-16 05:14:00,
2013-01-15 21:19:00,35.0,12.0,30.51,SSW,211,0.0,0.0,38,0.00,,---,0.00,VWS V14.01,2013-01-16 05:19:00,
2013-01-15 21:24:00,34.9,10.7,30.51,SSE,156,0.0,0.0,36,0.00,,---,0.00,VWS V14.01,2013-01-16 05:24:00,
2013-01-15 21:29:00,35.2,10.9,30.51,South,191,0.0,0.0,36,0.00,,---,0.00,VWS V14.01,2013-01-16 05:29:00,
2013-01-15 21:34:00,34.8,11.8,30.51,SSE,167,0.0,0.0,38,0.00,,---,0.00,VWS V14.01,2013-01-16 05:34:00,
2013-01-15 21:39:00,34.3,11.4,30.51,SSE,167,0.0,0.0,38,0.00,,---,0.00,VWS V14.01,2013-01-16 05:39:00,
2013-01-15 21:44:00,34.0,11.1,30.51,South,188,0.0,0.0,38,0.00,,---,0.00,VWS V14.01,2013-01-16 05:44:00,
2013-01-15 21:49:00,35.0,10.8,30.51,SSW,204,0.0,0.0,36,0.00,,---,0.00,VWS V14.01,2013-01-16 05:49:00,
2013-01-15 21:54:00,35.7,11.4,30.51,SSW,203,0.0,0.0,36,0.00,,---,0.00,VWS V14.01,2013-01-16 05:54:00,
2013-01-15 21:59:00,35.4,11.7,30.51,SSW,203,0.0,0.0,37,0.00,,---,0.00,VWS V14.01,2013-01-16 05:59:00,
2013-01-15 22:04:00,35.1,11.5,30.51,South,188,0.0,0.0,37,0.00,,---,0.00,VWS V14.01,2013-01-16 06:04:00,
2013-01-15 22:09:00,35.2,11.6,30.51,South,190,0.0,0.0,37,0.00,,---,0.00,VWS V14.01,2013-01-16 06:09:00,
2013-01-15 22:14:00,35.1,11.5,30.51,SSE,156,0.0,0.0,37,0.00,,---,0.00,VWS V14.01,2013-01-16 06:14:00,
2013-01-15 22:19:00,34.7,12.3,30.51,South,191,0.0,0.0,39,0.00,,---,0.00,VWS V14.01,2013-01-16 06:19:00,
2013-01-15 22:25:00,34.2,11.8,30.51,SSW,197,0.0,0.0,39,0.00,,---,0.00,VWS V14.01,2013-01-16 06:25:00,
2013-01-15 22:30:00,34.1,12.3,30.51,SE,142,0.0,0.0,40,0.00,,---,0.00,VWS V14.01,2013-01-16 06:30:00,
2013-01-15 22:35:00,33.5,12.3,30.51,SE,142,0.0,0.0,41,0.00,,---,0.00,VWS V14.01,2013-01-16 06:35:00,
2013-01-15 22:40:00,33.3,12.2,30.51,SE,136,0.0,0.0,41,0.00,,---,0.00,VWS V14.01,2013-01-16 06:40:00,
2013-01-15 22:45:00,33.0,11.9,30.51,SE,136,0.0,0.0,41,0.00,,---,0.00,VWS V14.01,2013-01-16 06:45:00,
2013-01-15 22:50:00,33.1,12.0,30.51,SE,132,0.0,0.0,41,0.00,,---,0.00,VWS V14.01,2013-01-16 06:50:00,
2013-01-15 22:55:00,33.6,10.7,30.51,SE,126,0.0,0.0,38,0.00,,---,0.00,VWS V14.01,2013-01-16 06:55:00,
2013-01-15 23:00:00,34.2,11.8,30.51,SE,126,0.0,0.0,39,0.00,,---,0.00,VWS V14.01,2013-01-16 07:00:00,
2013-01-15 23:05:00,33.7,11.4,30.51,SE,125,0.0,0.0,39,0.00,,---,0.00,VWS V14.01,2013-01-16 07:05:00,
2013-01-15 23:10:00,33.5,10.6,30.51,SE,126,0.0,0.0,38,0.00,,---,0.00,VWS V14.01,2013-01-16 07:10:00,
2013-01-15 23:15:00,33.5,11.2,30.51,SSE,160,0.0,0.0,39,0.00,,---,0.00,VWS V14.01,2013-01-16 07:15:00,
2013-01-15 23:20:00,32.7,11.6,30.51,SSW,205,0.0,0.0,41,0.00,,---,0.00,VWS V14.01,2013-01-16 07:20:00,
2013-01-15 23:25:00,32.9,10.7,30.51,SSW,193,0.0,0.0,39,0.00,,---,0.00,VWS V14.01,2013-01-16 07:25:00,
2013-01-15 23:30:00,32.9,10.7,30.51,South,191,0.0,0.0,39,0.00,,---,0.00,VWS V14.01,2013-01-16 07:30:00,
2013-01-15 23:35:00,33.2,10.4,30.52,SSE,153,0.0,0.0,38,0.00,,---,0.00,VWS V14.01,2013-01-16 07:35:00,
2013-01-15 23:40:00,33.0,10.8,30.52,South,172,0.0,0.0,39,0.00,,---,0.00,VWS V14.01,2013-01-16 07:40:00,
2013-01-15 23:45:00,32.8,10.6,30.51,SSW,206,0.0,0.0,39,0.00,,---,0.00,VWS V14.01,2013-01-16 07:45:00,
2013-01-15 23:50:00,32.1,11.1,30.52,SSE,167,0.0,0.0,41,0.00,,---,0.00,VWS V14.01,2013-01-16 07:50:00,
2013-01-15 23:55:00,32.1,10.5,30.52,SSE,163,3.0,4.0,40,0.00,,---,0.00,VWS V14.01,2013-01-16 07:55:00,